Time;durP1;ratioP1;P1;durP2;ratioP2;P2;SDS_P1;SDS_P2;PMS_P1;PMS_P2;Temp;Humidity;BMP_temperature;BMP_pressure;BME280_temperature;BME280_humidity;BME280_pressure;Samples;Min_cycle;Max_cycle;Signal;HPM_P1;HPM_P2
2023/06/26 00:02:14;;;;;;;43.83;42.20;;;21.50;99.90;;;;;;5013113;28;21004;-67
2023/06/26 00:04:43;;;;;;;42.63;41.03;;;21.40;99.90;;;;;;5017740;28;20212;-67
2023/06/26 00:07:11;;;;;;;45.28;43.60;;;21.40;99.90;;;;;;5013156;28;20322;-67
2023/06/26 00:09:38;;;;;;;39.42;37.97;;;21.40;99.90;;;;;;5012516;28;20235;-66
2023/06/26 00:12:05;;;;;;;44.58;42.95;;;21.30;99.90;;;;;;5012948;28;20232;-66
2023/06/26 00:14:33;;;;;;;50.05;48.15;;;21.30;99.90;;;;;;5012794;28;20252;-66
2023/06/26 00:17:00;;;;;;;41.08;39.53;;;21.30;99.90;;;;;;5013343;28;20201;-65
2023/06/26 00:19:27;;;;;;;38.38;37.00;;;21.30;99.90;;;;;;5012959;28;20284;-65
2023/06/26 00:21:54;;;;;;;46.08;44.40;;;21.30;99.90;;;;;;5017577;28;20717;-65
2023/06/26 00:24:21;;;;;;;42.78;41.20;;;21.20;99.90;;;;;;5034977;28;20204;-66
2023/06/26 00:26:49;;;;;;;42.92;41.35;;;21.10;99.90;;;;;;5040343;28;20588;-66
2023/06/26 00:29:16;;;;;;;39.70;38.25;;;21.10;99.90;;;;;;5035472;28;20221;-67
2023/06/26 00:31:44;;;;;;;41.45;39.95;;;21.00;99.90;;;;;;5033391;28;20225;-67
2023/06/26 00:34:11;;;;;;;47.90;46.20;;;20.90;99.90;;;;;;5033729;28;20215;-65
2023/06/26 00:36:38;;;;;;;40.03;38.55;;;20.90;99.90;;;;;;5033633;28;20204;-66
2023/06/26 00:39:05;;;;;;;43.97;42.40;;;21.00;99.90;;;;;;5032677;28;20235;-68
2023/06/26 00:41:32;;;;;;;39.53;38.03;;;20.80;99.90;;;;;;5033199;28;20212;-66
2023/06/26 00:43:58;;;;;;;36.13;34.83;;;20.90;99.90;;;;;;5032631;28;20644;-65
2023/06/26 00:46:25;;;;;;;36.75;35.45;;;20.80;99.90;;;;;;5032276;28;20221;-66
2023/06/26 00:48:55;;;;;;;36.30;35.00;;;20.70;99.90;;;;;;5031747;28;20232;-66
2023/06/26 00:51:21;;;;;;;34.10;32.90;;;20.70;99.90;;;;;;5031378;28;20232;-65
2023/06/26 00:53:49;;;;;;;34.30;33.00;;;20.60;99.90;;;;;;5032188;28;20204;-66
2023/06/26 00:56:18;;;;;;;26.98;26.02;;;20.60;99.90;;;;;;5032037;28;20200;-65
2023/06/26 00:58:45;;;;;;;34.05;32.85;;;20.50;99.90;;;;;;5032177;28;20224;-65
2023/06/26 01:01:15;;;;;;;31.23;30.13;;;20.40;99.90;;;;;;5031323;28;20324;-65
2023/06/26 01:03:43;;;;;;;26.45;25.55;;;20.30;99.90;;;;;;5031831;28;20213;-65
2023/06/26 01:06:13;;;;;;;30.38;29.27;;;20.30;99.90;;;;;;5032055;28;20208;-66
2023/06/26 01:08:41;;;;;;;27.45;26.45;;;20.20;99.90;;;;;;5039754;28;20220;-66
2023/06/26 01:11:08;;;;;;;27.70;26.70;;;20.20;99.90;;;;;;5034561;28;20220;-67
2023/06/26 01:13:36;;;;;;;31.70;30.60;;;20.20;99.90;;;;;;5032520;28;20215;-65
2023/06/26 01:16:04;;;;;;;34.90;33.65;;;20.20;99.90;;;;;;5041420;28;20719;-65
2023/06/26 01:18:33;;;;;;;30.75;29.65;;;20.10;99.90;;;;;;5032219;28;20228;-65
2023/06/26 01:21:01;;;;;;;32.42;31.27;;;20.20;99.90;;;;;;5030713;28;20832;-66
2023/06/26 01:23:36;;;;;;;29.30;28.23;;;20.30;99.90;;;;;;5031602;28;20211;-66
2023/06/26 01:26:19;;;;;;;30.05;29.00;;;20.30;99.90;;;;;;5031973;28;20697;-65
2023/06/26 01:28:47;;;;;;;30.63;29.52;;;20.30;99.90;;;;;;5031190;28;20266;-66
2023/06/26 01:31:14;;;;;;;29.15;28.15;;;20.20;99.90;;;;;;5026239;28;20232;-65
2023/06/26 01:33:42;;;;;;;24.80;23.90;;;20.10;99.90;;;;;;5031291;28;20304;-65
2023/06/26 01:36:09;;;;;;;28.83;27.73;;;20.10;99.90;;;;;;5031454;28;20209;-66
2023/06/26 01:38:36;;;;;;;29.23;28.23;;;20.10;99.90;;;;;;5031025;28;20224;-67
2023/06/26 01:41:04;;;;;;;27.48;26.48;;;20.10;99.90;;;;;;5029875;28;20205;-67
2023/06/26 01:43:41;;;;;;;26.13;25.23;;;19.90;99.90;;;;;;5031107;28;20584;-66
2023/06/26 01:46:15;;;;;;;26.17;25.27;;;19.90;99.90;;;;;;5031095;28;20243;-67
2023/06/26 01:48:47;;;;;;;26.77;25.77;;;19.90;99.90;;;;;;5030485;28;21094;-66
2023/06/26 01:51:17;;;;;;;24.38;23.50;;;19.90;99.90;;;;;;5030041;28;20232;-66
2023/06/26 01:53:48;;;;;;;23.08;22.27;;;19.90;99.90;;;;;;5032051;28;20205;-66
2023/06/26 01:56:18;;;;;;;26.67;25.77;;;19.80;99.90;;;;;;5037943;28;20699;-66
2023/06/26 01:58:48;;;;;;;25.33;24.42;;;19.80;99.90;;;;;;5033168;28;20667;-65
2023/06/26 02:01:15;;;;;;;27.13;26.15;;;19.80;99.90;;;;;;5031698;28;20208;-65
2023/06/26 02:03:41;;;;;;;25.17;24.27;;;19.70;99.90;;;;;;5032231;28;20209;-66
2023/06/26 02:06:08;;;;;;;25.17;24.27;;;19.70;99.90;;;;;;5031825;28;20303;-65
2023/06/26 02:08:35;;;;;;;23.65;22.85;;;19.80;99.90;;;;;;5032092;28;20315;-65
2023/06/26 02:11:02;;;;;;;24.67;23.80;;;19.70;99.90;;;;;;5030968;28;20230;-65
2023/06/26 02:13:29;;;;;;;24.98;24.08;;;19.70;99.90;;;;;;5031890;28;20270;-65
2023/06/26 02:15:57;;;;;;;27.00;26.05;;;19.70;99.90;;;;;;5031868;28;20208;-67
2023/06/26 02:18:24;;;;;;;25.05;24.15;;;19.70;99.90;;;;;;5031416;28;20256;-66
2023/06/26 02:20:51;;;;;;;25.10;24.20;;;19.70;99.90;;;;;;5030692;28;20200;-67
2023/06/26 02:23:17;;;;;;;25.17;24.27;;;19.70;99.90;;;;;;5031780;28;20212;-66
2023/06/26 02:25:44;;;;;;;25.55;24.65;;;19.60;99.90;;;;;;5031856;28;20631;-65
2023/06/26 02:28:11;;;;;;;24.75;23.88;;;19.70;99.90;;;;;;5031224;28;20227;-65
2023/06/26 02:30:38;;;;;;;25.98;24.98;;;19.60;99.90;;;;;;5034249;28;20281;-65
2023/06/26 02:33:06;;;;;;;22.20;21.40;;;19.70;99.90;;;;;;5030343;28;20562;-66
2023/06/26 02:35:33;;;;;;;23.63;22.73;;;19.60;99.90;;;;;;5030648;28;20216;-65
2023/06/26 02:38:00;;;;;;;25.65;24.75;;;19.60;99.90;;;;;;5030750;28;20221;-65
2023/06/26 02:40:27;;;;;;;21.35;20.58;;;19.60;99.90;;;;;;5029889;28;20666;-67
2023/06/26 02:42:54;;;;;;;21.73;20.95;;;19.60;99.90;;;;;;5029986;28;20833;-66
2023/06/26 02:45:20;;;;;;;24.25;23.38;;;19.60;99.90;;;;;;5030787;28;20204;-64
2023/06/26 02:47:47;;;;;;;22.45;21.63;;;19.60;99.90;;;;;;5030709;28;20208;-66
2023/06/26 02:50:16;;;;;;;27.90;26.90;;;19.60;99.90;;;;;;5029850;28;20672;-65
2023/06/26 02:52:42;;;;;;;28.48;27.48;;;19.60;99.90;;;;;;5030261;28;20211;-65
2023/06/26 02:55:09;;;;;;;24.70;23.85;;;19.60;99.90;;;;;;5030719;28;20205;-67
2023/06/26 02:57:36;;;;;;;28.35;27.35;;;19.60;99.90;;;;;;5030706;28;20296;-65
2023/06/26 03:00:03;;;;;;;29.90;28.83;;;19.60;99.90;;;;;;5028890;28;20228;-65
2023/06/26 03:02:31;;;;;;;20.73;19.98;;;19.60;99.90;;;;;;5029908;28;20232;-66
2023/06/26 03:04:58;;;;;;;17.05;16.45;;;19.70;99.90;;;;;;5030380;28;20754;-65
2023/06/26 03:07:26;;;;;;;14.93;14.40;;;19.70;99.90;;;;;;5030199;28;20201;-67
2023/06/26 03:09:53;;;;;;;15.02;14.50;;;19.70;99.90;;;;;;5030124;28;20976;-66
2023/06/26 03:12:20;;;;;;;13.93;13.38;;;19.70;99.90;;;;;;5032297;28;20291;-66
2023/06/26 03:14:47;;;;;;;17.40;16.77;;;19.70;99.90;;;;;;5041109;28;20208;-65
2023/06/26 03:17:14;;;;;;;15.27;14.75;;;19.70;99.90;;;;;;5032841;28;20204;-67
2023/06/26 03:19:41;;;;;;;13.88;13.38;;;19.70;99.90;;;;;;5032268;28;20935;-67
2023/06/26 03:22:07;;;;;;;25.25;24.35;;;19.70;99.90;;;;;;5030256;28;20220;-66
2023/06/26 03:24:35;;;;;;;5.35;5.15;;;19.60;99.90;;;;;;5030609;28;20212;-67
2023/06/26 03:27:02;;;;;;;4.82;4.63;;;19.60;99.90;;;;;;5035612;28;20213;-65
2023/06/26 03:29:30;;;;;;;3.88;3.78;;;19.60;99.90;;;;;;5034794;28;20229;-66
2023/06/26 03:31:57;;;;;;;4.60;4.40;;;19.60;99.90;;;;;;5034404;28;20334;-66
2023/06/26 03:34:24;;;;;;;5.70;5.50;;;19.60;99.90;;;;;;5033764;28;20201;-66
2023/06/26 03:36:50;;;;;;;3.92;3.83;;;19.60;99.90;;;;;;5033258;28;20207;-66
2023/06/26 03:39:17;;;;;;;3.53;3.42;;;19.60;99.90;;;;;;5032935;28;20319;-67
2023/06/26 03:41:45;;;;;;;3.70;3.60;;;19.60;99.90;;;;;;5033452;28;20327;-66
2023/06/26 03:44:12;;;;;;;4.53;4.35;;;19.60;99.90;;;;;;5033833;28;20300;-65
2023/06/26 03:46:39;;;;;;;4.10;4.00;;;19.60;99.90;;;;;;5033435;28;20616;-67
2023/06/26 03:49:06;;;;;;;6.35;6.15;;;19.60;99.90;;;;;;5032768;28;20319;-66
2023/06/26 03:51:33;;;;;;;7.15;6.95;;;19.60;99.90;;;;;;5034327;28;20295;-68
2023/06/26 03:53:59;;;;;;;5.28;5.00;;;19.60;99.90;;;;;;5034406;28;20204;-63
2023/06/26 03:56:26;;;;;;;7.85;7.55;;;19.60;99.90;;;;;;5033813;28;20437;-63
2023/06/26 03:58:54;;;;;;;6.68;6.47;;;19.60;99.90;;;;;;5032683;28;20239;-64
2023/06/26 04:01:21;;;;;;;6.38;6.18;;;19.50;99.90;;;;;;5032379;28;20607;-62
2023/06/26 04:03:48;;;;;;;3.97;3.83;;;19.50;99.90;;;;;;5034295;28;20703;-64
2023/06/26 04:06:15;;;;;;;4.20;4.10;;;19.50;99.90;;;;;;5034914;28;20211;-63
2023/06/26 04:08:42;;;;;;;4.32;4.18;;;19.50;99.90;;;;;;5035624;28;20239;-62
2023/06/26 04:11:08;;;;;;;4.57;4.30;;;19.50;99.90;;;;;;5037540;28;20300;-61
2023/06/26 04:13:35;;;;;;;8.88;8.57;;;19.50;99.90;;;;;;5035743;28;20240;-63
2023/06/26 04:16:06;;;;;;;6.60;6.40;;;19.50;99.90;;;;;;5035342;28;20232;-63
2023/06/26 04:18:32;;;;;;;5.03;4.82;;;19.50;99.90;;;;;;5035239;28;20227;-63
2023/06/26 04:21:08;;;;;;;5.15;4.95;;;19.50;99.90;;;;;;5031978;28;20242;-64
2023/06/26 04:23:35;;;;;;;6.45;6.25;;;19.60;99.90;;;;;;5032692;28;20208;-64
2023/06/26 04:26:02;;;;;;;5.90;5.70;;;19.60;99.90;;;;;;5033557;28;20193;-63
2023/06/26 04:28:29;;;;;;;5.38;5.18;;;19.60;99.90;;;;;;5034522;28;20229;-64
2023/06/26 04:30:56;;;;;;;3.47;3.38;;;19.60;99.90;;;;;;5034124;28;20216;-63
2023/06/26 04:33:25;;;;;;;4.03;3.92;;;19.60;99.90;;;;;;5035828;28;20209;-62
2023/06/26 04:35:52;;;;;;;4.07;3.88;;;19.60;99.90;;;;;;5036695;28;20232;-64
2023/06/26 04:38:19;;;;;;;5.18;4.97;;;19.60;99.90;;;;;;5038784;28;20302;-62
2023/06/26 04:40:46;;;;;;;7.57;7.28;;;19.60;99.90;;;;;;5035494;28;20200;-64
2023/06/26 04:43:13;;;;;;;4.07;3.97;;;19.60;99.90;;;;;;5033239;28;20256;-64
2023/06/26 04:45:40;;;;;;;4.15;4.05;;;19.60;99.90;;;;;;5032933;28;20231;-62
2023/06/26 04:48:06;;;;;;;4.60;4.40;;;19.70;99.90;;;;;;5032801;28;20208;-64
2023/06/26 04:50:35;;;;;;;4.50;4.30;;;19.70;99.90;;;;;;5044331;28;20211;-62
2023/06/26 04:53:02;;;;;;;4.78;4.57;;;19.80;99.90;;;;;;5035052;28;20576;-63
2023/06/26 04:55:29;;;;;;;4.20;4.00;;;19.80;99.90;;;;;;5032124;28;20201;-63
2023/06/26 04:57:56;;;;;;;4.25;4.10;;;19.90;99.90;;;;;;5031699;28;20663;-63
2023/06/26 05:00:24;;;;;;;6.55;6.35;;;19.90;99.90;;;;;;5051224;28;20236;-62
2023/06/26 05:02:58;;;;;;;5.78;5.57;;;20.00;99.90;;;;;;5053185;28;20235;-63
2023/06/26 05:05:25;;;;;;;3.20;3.10;;;20.20;99.90;;;;;;5053189;28;20212;-64
2023/06/26 05:07:54;;;;;;;8.63;8.32;;;20.30;99.90;;;;;;5055439;28;20214;-63
2023/06/26 05:10:21;;;;;;;5.63;5.43;;;20.40;99.90;;;;;;5051913;28;20234;-64
2023/06/26 05:12:48;;;;;;;4.53;4.32;;;20.60;99.90;;;;;;5040061;28;20195;-64
2023/06/26 05:15:15;;;;;;;4.72;4.53;;;20.80;99.90;;;;;;5064726;28;20205;-62
2023/06/26 05:17:42;;;;;;;4.60;4.40;;;20.90;99.90;;;;;;5035217;28;20213;-64
2023/06/26 05:20:10;;;;;;;5.43;5.22;;;21.10;99.90;;;;;;5032033;28;20294;-62
2023/06/26 05:22:38;;;;;;;6.25;6.05;;;21.30;99.90;;;;;;5035678;28;20274;-63
2023/06/26 05:25:10;;;;;;;5.53;5.32;;;21.40;99.90;;;;;;5034244;28;20272;-63
2023/06/26 05:27:37;;;;;;;9.05;8.75;;;21.60;99.90;;;;;;5052773;28;20196;-62
2023/06/26 05:30:05;;;;;;;25.92;25.02;;;21.80;99.90;;;;;;5038539;28;20320;-63
2023/06/26 05:32:35;;;;;;;27.85;26.85;;;21.90;99.90;;;;;;5039039;28;20283;-62
2023/06/26 05:35:04;;;;;;;31.35;30.25;;;22.00;99.90;;;;;;5037513;28;20212;-65
2023/06/26 05:37:32;;;;;;;25.10;24.20;;;22.20;99.90;;;;;;5033587;28;20213;-63
2023/06/26 05:39:59;;;;;;;22.33;21.52;;;22.40;99.90;;;;;;5032263;28;20232;-63
2023/06/26 05:42:29;;;;;;;21.80;21.05;;;22.60;99.90;;;;;;5033220;28;20220;-61
2023/06/26 05:44:57;;;;;;;23.10;22.30;;;22.70;99.90;;;;;;5032234;28;20197;-62
2023/06/26 05:47:24;;;;;;;22.77;21.98;;;22.90;99.90;;;;;;5037708;28;20203;-61
2023/06/26 05:49:51;;;;;;;23.20;22.40;;;23.00;99.90;;;;;;5038917;28;20670;-61
2023/06/26 05:52:18;;;;;;;23.52;22.73;;;23.20;99.90;;;;;;5035311;28;20203;-62
2023/06/26 05:54:45;;;;;;;19.70;19.00;;;23.30;99.90;;;;;;5030906;28;20207;-61
2023/06/26 05:57:14;;;;;;;21.52;20.80;;;23.50;99.90;;;;;;5032163;28;20207;-60
2023/06/26 05:59:44;;;;;;;23.55;22.75;;;23.70;99.90;;;;;;5031007;28;20766;-63
2023/06/26 06:02:12;;;;;;;40.03;38.53;;;23.80;99.90;;;;;;5028110;28;20227;-62
2023/06/26 06:04:39;;;;;;;22.38;21.60;;;24.00;99.90;;;;;;5035240;28;20295;-61
2023/06/26 06:07:06;;;;;;;29.90;28.83;;;24.20;99.90;;;;;;5030543;28;20687;-62
2023/06/26 06:09:33;;;;;;;27.67;26.65;;;24.30;99.90;;;;;;5031098;28;20238;-61
2023/06/26 06:12:01;;;;;;;64.50;61.70;;;24.40;99.90;;;;;;5031635;28;20631;-62
2023/06/26 06:14:28;;;;;;;77.50;74.57;;;24.60;99.90;;;;;;5031422;28;20588;-62
2023/06/26 06:16:56;;;;;;;65.15;62.58;;;24.70;99.90;;;;;;5032050;28;20216;-61
2023/06/26 06:19:23;;;;;;;30.55;29.45;;;24.80;99.90;;;;;;5030709;28;20220;-61
2023/06/26 06:21:50;;;;;;;38.33;36.92;;;25.00;99.90;;;;;;5031545;28;20213;-61
2023/06/26 06:24:16;;;;;;;54.75;52.60;;;25.10;99.90;;;;;;5031963;28;20228;-62
2023/06/26 06:26:43;;;;;;;140.10;134.65;;;25.20;99.90;;;;;;5031846;28;20218;-61
2023/06/26 06:29:10;;;;;;;141.73;136.07;;;25.40;99.90;;;;;;5029550;28;20706;-62
2023/06/26 06:31:37;;;;;;;138.18;132.73;;;25.50;99.90;;;;;;5034521;28;20204;-61
2023/06/26 06:34:05;;;;;;;125.88;120.93;;;25.60;99.90;;;;;;5040433;28;20204;-62
2023/06/26 06:36:32;;;;;;;72.35;69.55;;;25.70;99.90;;;;;;5042613;28;20434;-61
2023/06/26 06:38:59;;;;;;;44.15;42.55;;;25.80;99.90;;;;;;5034852;28;20262;-61
2023/06/26 06:41:26;;;;;;;43.33;41.72;;;26.00;99.90;;;;;;5032311;28;20679;-60
2023/06/26 06:43:53;;;;;;;29.33;28.25;;;26.20;99.90;;;;;;5033023;28;20294;-62
2023/06/26 06:46:19;;;;;;;17.25;16.63;;;26.40;99.90;;;;;;5033055;28;20247;-61
2023/06/26 06:48:46;;;;;;;11.15;10.75;;;26.50;99.90;;;;;;5032443;28;20240;-61
2023/06/26 06:51:15;;;;;;;9.52;9.23;;;26.60;99.90;;;;;;5032546;28;20193;-61
2023/06/26 06:53:41;;;;;;;8.20;7.90;;;26.80;99.90;;;;;;5032009;28;20205;-61
2023/06/26 06:56:08;;;;;;;8.98;8.68;;;26.90;99.90;;;;;;5031657;28;20215;-62
2023/06/26 06:58:35;;;;;;;9.00;8.70;;;27.00;99.90;;;;;;5031930;28;20311;-62
2023/06/26 07:01:04;;;;;;;6.00;5.80;;;27.10;99.90;;;;;;5031069;28;20303;-61
2023/06/26 07:03:31;;;;;;;7.60;7.35;;;27.30;99.90;;;;;;5033137;28;20282;-61
2023/06/26 07:05:57;;;;;;;6.55;6.35;;;27.40;99.90;;;;;;5034922;28;20245;-62
2023/06/26 07:08:26;;;;;;;242.20;231.35;;;27.60;99.90;;;;;;5035153;28;20784;-62
2023/06/26 07:10:52;;;;;;;216.30;205.57;;;27.70;99.90;;;;;;5038943;28;20214;-62
2023/06/26 07:13:19;;;;;;;52.15;49.90;;;27.90;99.90;;;;;;5039538;28;20201;-62
2023/06/26 07:15:47;;;;;;;108.43;102.40;;;28.10;99.90;;;;;;5033795;28;20204;-62
2023/06/26 07:18:14;;;;;;;105.60;100.05;;;28.10;99.90;;;;;;5033919;28;20667;-62
2023/06/26 07:20:41;;;;;;;68.35;65.28;;;28.20;99.90;;;;;;5032523;28;20204;-61
2023/06/26 07:23:08;;;;;;;18.70;17.88;;;28.30;99.90;;;;;;5033512;28;20698;-61
2023/06/26 07:25:37;;;;;;;40.53;38.97;;;28.30;99.90;;;;;;5033560;28;20753;-61
2023/06/26 07:28:04;;;;;;;47.58;45.63;;;28.40;99.90;;;;;;5034596;28;20204;-61
2023/06/26 07:30:30;;;;;;;33.42;32.20;;;28.50;99.90;;;;;;5033362;28;20207;-62
2023/06/26 07:32:57;;;;;;;16.88;16.27;;;28.40;99.90;;;;;;5032298;28;20205;-61
2023/06/26 07:35:27;;;;;;;24.90;23.92;;;28.50;99.90;;;;;;5033432;28;20213;-62
2023/06/26 07:37:53;;;;;;;51.53;49.13;;;28.60;99.90;;;;;;5033667;28;20554;-62
2023/06/26 07:40:20;;;;;;;16.95;16.35;;;28.60;99.90;;;;;;5032345;28;20229;-62
2023/06/26 07:42:48;;;;;;;24.05;23.15;;;28.50;99.90;;;;;;5032964;28;20220;-61
2023/06/26 07:45:16;;;;;;;32.80;31.48;;;28.60;99.90;;;;;;5032805;28;20204;-62
2023/06/26 07:47:42;;;;;;;31.83;30.63;;;28.80;99.90;;;;;;5032533;28;20235;-61
2023/06/26 07:50:10;;;;;;;206.77;198.55;;;28.80;99.90;;;;;;5032330;28;20229;-61
2023/06/26 07:52:38;;;;;;;139.27;133.32;;;29.00;99.90;;;;;;5032628;28;20287;-61
2023/06/26 07:55:05;;;;;;;164.38;157.52;;;28.90;99.90;;;;;;5032986;28;20205;-62
2023/06/26 07:57:33;;;;;;;99.97;95.63;;;29.10;99.90;;;;;;5033510;28;20295;-62
2023/06/26 08:00:01;;;;;;;86.55;82.72;;;29.20;99.90;;;;;;5033525;28;20715;-61
2023/06/26 08:02:28;;;;;;;79.28;75.90;;;29.00;99.90;;;;;;5036895;28;20593;-60
2023/06/26 08:04:55;;;;;;;74.30;71.20;;;29.10;99.90;;;;;;5040159;28;20528;-62
2023/06/26 08:07:22;;;;;;;79.93;76.60;;;29.20;99.90;;;;;;5038130;28;20288;-61
2023/06/26 08:09:49;;;;;;;79.47;76.07;;;29.30;99.90;;;;;;5036585;28;20321;-61
2023/06/26 08:12:16;;;;;;;86.97;83.35;;;29.40;99.90;;;;;;5033571;28;20211;-61
2023/06/26 08:14:43;;;;;;;107.20;102.50;;;29.40;99.90;;;;;;5032560;28;20894;-62
2023/06/26 08:17:11;;;;;;;104.63;100.13;;;29.40;99.90;;;;;;5032738;28;20209;-61
2023/06/26 08:19:37;;;;;;;121.57;116.32;;;29.50;99.90;;;;;;5031663;28;20225;-62
2023/06/26 08:22:05;;;;;;;135.63;129.55;;;29.60;99.90;;;;;;5032387;28;20710;-62
2023/06/26 08:24:32;;;;;;;130.32;124.60;;;29.70;99.90;;;;;;5032557;28;20228;-62
2023/06/26 08:26:58;;;;;;;145.02;138.52;;;29.90;99.90;;;;;;5033523;28;20207;-61
2023/06/26 08:29:25;;;;;;;103.47;99.18;;;30.00;99.90;;;;;;5031606;28;20225;-61
2023/06/26 08:31:52;;;;;;;131.95;125.97;;;29.90;99.90;;;;;;5033862;28;20214;-61
2023/06/26 08:34:20;;;;;;;154.10;146.38;;;29.80;99.90;;;;;;5033929;28;20201;-62
2023/06/26 08:36:47;;;;;;;160.65;153.80;;;29.70;99.90;;;;;;5032711;28;20549;-61
2023/06/26 08:39:14;;;;;;;58.35;56.08;;;29.70;99.90;;;;;;5031742;28;20228;-61
2023/06/26 08:41:41;;;;;;;29.98;28.83;;;29.80;99.90;;;;;;5031447;28;20205;-61
2023/06/26 08:44:08;;;;;;;50.03;47.80;;;29.80;99.90;;;;;;5033220;28;20235;-62
2023/06/26 08:46:36;;;;;;;31.30;30.17;;;29.90;99.90;;;;;;5033112;28;20208;-62
2023/06/26 08:49:09;;;;;;;52.70;50.33;;;29.80;99.90;;;;;;5033106;28;20689;-61
2023/06/26 08:51:39;;;;;;;38.22;36.75;;;29.50;99.90;;;;;;5032696;28;20207;-61
2023/06/26 08:54:12;;;;;;;23.92;22.95;;;29.30;99.90;;;;;;5031489;28;20199;-62
2023/06/26 08:56:43;;;;;;;4.45;4.30;;;29.30;99.90;;;;;;5031449;28;20228;-62
2023/06/26 08:59:12;;;;;;;3.50;3.40;;;29.30;99.90;;;;;;5031293;28;20225;-62
2023/06/26 09:01:39;;;;;;;2.95;2.85;;;29.40;99.90;;;;;;5032183;28;20608;-62
2023/06/26 09:04:06;;;;;;;3.50;3.08;;;29.30;99.90;;;;;;5032104;28;20224;-62
2023/06/26 09:06:33;;;;;;;3.63;3.53;;;29.30;99.90;;;;;;5037886;28;20241;-62
2023/06/26 09:09:03;;;;;;;3.75;3.65;;;29.40;99.90;;;;;;5032974;28;20225;-63
2023/06/26 09:11:30;;;;;;;23.00;21.95;;;29.20;99.90;;;;;;5032271;28;20706;-62
2023/06/26 09:13:57;;;;;;;3.92;3.83;;;29.50;99.90;;;;;;5032109;28;20201;-62
2023/06/26 09:16:27;;;;;;;22.38;21.38;;;29.70;99.90;;;;;;5032059;28;20209;-61
2023/06/26 09:18:54;;;;;;;45.58;43.20;;;29.80;99.90;;;;;;5031337;28;20643;-61
2023/06/26 09:21:22;;;;;;;4.75;4.55;;;29.70;99.90;;;;;;5030616;28;20208;-64
2023/06/26 09:23:50;;;;;;;6.20;6.00;;;29.50;99.90;;;;;;5030695;28;20228;-61
2023/06/26 09:26:18;;;;;;;15.43;14.88;;;29.50;99.90;;;;;;5031617;28;20215;-62
2023/06/26 09:28:45;;;;;;;8.70;8.30;;;29.10;99.90;;;;;;5032113;28;20225;-62
2023/06/26 09:31:13;;;;;;;10.23;9.80;;;29.20;99.90;;;;;;5031347;28;20584;-62
2023/06/26 09:33:42;;;;;;;8.90;8.57;;;29.40;99.90;;;;;;5031794;28;20207;-62
2023/06/26 09:36:19;;;;;;;6.68;6.47;;;29.40;99.90;;;;;;5032069;28;20207;-61
2023/06/26 09:38:45;;;;;;;6.43;6.22;;;29.40;99.90;;;;;;5031945;28;20242;-61
2023/06/26 09:41:12;;;;;;;9.95;9.55;;;29.40;99.90;;;;;;5031165;28;20208;-62
2023/06/26 09:43:48;;;;;;;8.38;8.07;;;29.40;99.90;;;;;;5030791;28;20216;-62
2023/06/26 09:46:17;;;;;;;7.72;7.40;;;29.40;99.90;;;;;;5030628;28;20208;-63
2023/06/26 09:48:44;;;;;;;5.82;5.63;;;29.60;99.90;;;;;;5030905;28;20285;-62
2023/06/26 09:51:11;;;;;;;8.80;8.50;;;29.60;99.90;;;;;;5031904;28;20204;-63
2023/06/26 09:53:38;;;;;;;7.65;7.40;;;29.40;99.90;;;;;;5034742;28;20216;-61
2023/06/26 09:56:08;;;;;;;3.67;3.58;;;29.20;99.90;;;;;;5034868;28;20212;-62
2023/06/26 09:58:36;;;;;;;3.83;3.72;;;29.00;99.90;;;;;;5030732;28;20232;-61
2023/06/26 10:01:04;;;;;;;33.15;31.30;;;29.10;99.90;;;;;;5030157;28;20300;-64
2023/06/26 10:03:31;;;;;;;6.68;6.38;;;29.30;99.90;;;;;;5030385;28;20232;-63
2023/06/26 10:05:58;;;;;;;5.97;5.68;;;29.60;99.90;;;;;;5030638;28;20272;-62
2023/06/26 10:08:25;;;;;;;9.25;8.93;;;29.50;99.90;;;;;;5030695;28;20232;-61
2023/06/26 10:10:54;;;;;;;14.43;13.88;;;29.40;99.90;;;;;;5030582;28;20205;-62
2023/06/26 10:13:28;;;;;;;11.65;11.18;;;29.40;99.90;;;;;;5031724;28;20207;-60
2023/06/26 10:15:56;;;;;;;5.72;5.50;;;29.60;99.90;;;;;;5031374;28;20638;-63
2023/06/26 10:18:26;;;;;;;154.48;142.75;;;29.40;99.90;;;;;;5031266;28;20219;-61
2023/06/26 10:20:56;;;;;;;2.50;2.40;;;29.20;99.90;;;;;;5032302;28;20213;-62
2023/06/26 10:23:25;;;;;;;2.40;2.30;;;29.10;99.90;;;;;;5031759;28;20229;-61
2023/06/26 10:25:56;;;;;;;3.00;2.90;;;29.40;99.90;;;;;;5030997;28;20774;-61
2023/06/26 10:28:24;;;;;;;3.33;3.22;;;29.70;99.90;;;;;;5031585;28;20188;-61
2023/06/26 10:30:52;;;;;;;4.85;4.65;;;29.90;99.90;;;;;;5030582;28;20209;-62
2023/06/26 10:33:20;;;;;;;3.40;3.30;;;29.90;99.90;;;;;;5031390;28;20215;-63
2023/06/26 10:35:49;;;;;;;4.53;4.32;;;30.00;99.90;;;;;;5031288;28;20208;-62
2023/06/26 10:38:16;;;;;;;3.92;3.80;;;30.20;99.90;;;;;;5030549;28;20262;-62
2023/06/26 10:40:45;;;;;;;6.15;5.95;;;30.40;99.90;;;;;;5030654;28;20581;-61
2023/06/26 10:43:13;;;;;;;4.55;4.45;;;30.30;99.90;;;;;;5031461;28;20582;-61
2023/06/26 10:45:46;;;;;;;5.00;4.78;;;30.20;99.90;;;;;;5031438;28;20204;-63
2023/06/26 10:48:16;;;;;;;4.82;4.63;;;30.30;99.90;;;;;;5031213;28;20262;-61
2023/06/26 10:50:42;;;;;;;12.48;11.95;;;30.10;99.90;;;;;;5051570;22;20724;-60
2023/06/26 10:53:19;;;;;;;5.30;5.05;;;30.10;99.90;;;;;;5019748;28;20659;-60
2023/06/26 10:55:51;;;;;;;7.03;6.72;;;29.90;99.90;;;;;;5010410;28;20217;-60
2023/06/26 10:58:32;;;;;;;5.28;5.07;;;29.90;99.90;;;;;;5009705;28;20198;-61
2023/06/26 11:01:23;;;;;;;3.78;3.67;;;29.90;99.90;;;;;;5009192;28;20311;-60
2023/06/26 11:04:02;;;;;;;4.50;4.30;;;29.90;99.90;;;;;;5009826;28;20769;-60
2023/06/26 11:06:29;;;;;;;3.85;3.75;;;30.00;99.90;;;;;;5010542;28;20189;-60
2023/06/26 11:09:07;;;;;;;4.35;4.18;;;30.20;99.90;;;;;;5009926;28;20296;-61
2023/06/26 11:12:01;;;;;;;3.95;3.75;;;30.30;99.90;;;;;;5009836;28;20364;-60
2023/06/26 11:14:28;;;;;;;5.32;5.13;;;30.30;99.90;;;;;;5009703;28;20667;-61
2023/06/26 11:16:57;;;;;;;8.23;7.93;;;30.40;99.90;;;;;;5009731;28;20213;-60
2023/06/26 11:19:26;;;;;;;6.68;6.47;;;30.30;99.90;;;;;;5008959;28;20213;-62
2023/06/26 11:21:58;;;;;;;3.92;3.83;;;30.30;99.90;;;;;;5009916;28;20245;-59
2023/06/26 11:24:28;;;;;;;4.15;3.95;;;30.20;99.90;;;;;;5011165;28;20598;-61
2023/06/26 11:27:00;;;;;;;4.50;4.40;;;30.00;99.90;;;;;;5015724;28;20686;-61
2023/06/26 11:29:27;;;;;;;4.53;4.38;;;29.80;99.90;;;;;;5009418;28;20574;-60
2023/06/26 11:32:00;;;;;;;3.75;3.65;;;29.70;99.90;;;;;;5009906;28;20287;-61
2023/06/26 11:34:31;;;;;;;6.47;6.28;;;29.70;99.90;;;;;;5009648;28;20221;-62
2023/06/26 11:37:01;;;;;;;9.13;8.82;;;30.00;99.90;;;;;;5009895;28;20232;-61
2023/06/26 11:39:29;;;;;;;14.27;13.77;;;30.30;99.90;;;;;;5009297;28;20259;-60
2023/06/26 11:41:56;;;;;;;23.17;22.38;;;30.50;99.90;;;;;;5009449;28;20229;-61
2023/06/26 11:44:23;;;;;;;16.27;15.65;;;30.70;99.90;;;;;;5009238;28;20221;-62
2023/06/26 11:46:55;;;;;;;31.98;30.85;;;30.50;99.90;;;;;;4991572;28;20205;-60
2023/06/26 11:49:25;;;;;;;34.38;33.15;;;30.10;99.90;;;;;;5008597;28;20279;-59
2023/06/26 11:51:54;;;;;;;37.55;36.25;;;30.20;99.90;;;;;;5016478;28;20284;-60
2023/06/26 11:54:26;;;;;;;48.67;46.95;;;30.30;99.90;;;;;;5013636;28;20708;-59
2023/06/26 11:56:58;;;;;;;34.42;33.22;;;30.20;99.90;;;;;;5016936;28;20209;-60
2023/06/26 11:59:33;;;;;;;22.17;21.38;;;30.30;99.90;;;;;;5015357;28;20280;-60
2023/06/26 12:02:01;;;;;;;51.70;49.80;;;30.50;99.90;;;;;;5014425;28;20323;-60
2023/06/26 12:04:28;;;;;;;53.30;51.40;;;30.50;99.90;;;;;;5017595;28;20240;-61
2023/06/26 12:06:57;;;;;;;46.80;45.15;;;30.50;99.90;;;;;;5014417;28;20735;-60
2023/06/26 12:09:26;;;;;;;46.70;45.08;;;30.50;99.90;;;;;;5013807;28;20205;-61
2023/06/26 12:11:55;;;;;;;12.73;12.02;;;30.60;99.90;;;;;;5013820;28;20239;-60
2023/06/26 12:14:26;;;;;;;8.30;7.97;;;30.50;99.90;;;;;;5013475;28;20593;-59
2023/06/26 12:16:53;;;;;;;5.93;5.72;;;30.20;99.90;;;;;;5014240;28;20189;-62
2023/06/26 12:19:26;;;;;;;4.47;4.28;;;29.90;99.90;;;;;;5013748;28;20256;-61
2023/06/26 12:21:53;;;;;;;5.20;5.00;;;29.70;99.90;;;;;;5014530;28;20233;-60
2023/06/26 12:24:21;;;;;;;4.45;4.30;;;29.60;99.90;;;;;;5014015;28;20313;-60
2023/06/26 12:26:51;;;;;;;4.63;4.38;;;29.50;99.90;;;;;;5013429;28;20209;-61
2023/06/26 12:29:19;;;;;;;4.63;4.45;;;29.50;99.90;;;;;;5012807;28;20235;-60
2023/06/26 12:31:51;;;;;;;3.95;3.85;;;29.60;99.90;;;;;;5014682;28;20717;-60
2023/06/26 12:34:20;;;;;;;9.18;8.77;;;29.80;99.90;;;;;;5002846;28;20197;-61
2023/06/26 12:36:48;;;;;;;18.90;18.23;;;29.80;99.90;;;;;;5010695;28;20197;-61
2023/06/26 12:39:18;;;;;;;18.35;17.75;;;29.60;99.90;;;;;;5009667;28;20209;-61